CheckWX is a tool to help pilots better visualize weather data.  It is not intended as a substitute for an official pre-flight weather briefing.

12:49:51 UTC

FAUP METAR
Pierre Van Ryneveld Airport
Upington, South Africa
Current

50 mins ago

FAUP 221200Z 24008G18KT 9999 FEW050 40/05 Q1014 NOSIG
Observed
Feb-22 @ 12:00 UTC
Wind
  • 240° at 8 KTS
  • Gusting to KTS
Visibility
10,000+ meters
Flight Rules
VFR
Cloud Levels
  • Few at 5,000' AGL
Temperature
40°C / 104°F
Dewpoint
C / 41°F
Humidity
12%
Altimeter
29.94" Hg
Pressure
1013.92 hPa
Previous

2 hours ago

FAUP 221100Z 27007KT 9999 FEW050 38/05 Q1015 NOSIG
Observed
Feb-22 @ 11:00 UTC
Wind
  • 270° at 7 KTS
Visibility
10,000+ meters
Flight Rules
VFR
Cloud Levels
  • Few at 5,000' AGL
Temperature
38°C / 100°F
Dewpoint
C / 41°F
Humidity
13%
Altimeter
29.97" Hg
Pressure
1014.92 hPa
Previous

3 hours ago

FAUP 221000Z 19003KT CAVOK 38/04 Q1015 NOSIG
Observed
Feb-22 @ 10:00 UTC
Wind
  • 190° at 3 KTS
Visibility
10,000+ meters
Flight Rules
VFR
Cloud Levels
  • Clear skies
Temperature
38°C / 100°F
Dewpoint
C / 39°F
Humidity
12%
Altimeter
29.97" Hg
Pressure
1014.92 hPa